Time;durP1;ratioP1;P1;durP2;ratioP2;P2;SDS_P1;SDS_P2;PMS_P1;PMS_P2;Temp;Humidity;BMP_temperature;BMP_pressure;BME280_temperature;BME280_humidity;BME280_pressure;Samples;Min_cycle;Max_cycle;Signal;HPM_P1;HPM_P2
2023/08/30 00:03:43;;;;;;;2.60;1.30;;;23.90;66.20;;;;;;222552;1268;24225;-56
2023/08/30 00:08:46;;;;;;;4.90;1.20;;;23.90;66.20;;;;;;222248;1257;22537;-57
2023/08/30 00:14:05;;;;;;;1.30;1.20;;;23.90;65.80;;;;;;222822;1267;213730;-56
2023/08/30 00:19:10;;;;;;;0.90;0.90;;;23.90;65.80;;;;;;222588;1254;23016;-51
2023/08/30 00:24:14;;;;;;;1.90;1.20;;;23.90;66.00;;;;;;222602;1267;22613;-57
2023/08/30 00:29:19;;;;;;;1.40;0.90;;;23.90;66.10;;;;;;222665;1265;22527;-58
2023/08/30 00:34:30;;;;;;;2.00;1.10;;;23.90;65.70;;;;;;222194;1259;23005;-56
2023/08/30 00:39:42;;;;;;;1.30;1.10;;;23.90;65.80;;;;;;223373;1266;24198;-57
2023/08/30 00:44:47;;;;;;;;;;;23.90;65.70;;;;;;222376;1253;22504;-55
2023/08/30 00:50:10;;;;;;;1.50;0.80;;;23.90;66.00;;;;;;223139;1262;22521;-55
2023/08/30 00:55:16;;;;;;;0.70;0.70;;;23.90;66.20;;;;;;222535;1263;22753;-56
2023/08/30 01:00:22;;;;;;;2.40;1.00;;;23.90;65.80;;;;;;222725;1261;22774;-53
2023/08/30 01:05:25;;;;;;;1.10;1.00;;;23.80;65.50;;;;;;222690;1262;25384;-55
2023/08/30 01:10:52;;;;;;;0.80;0.70;;;23.80;65.60;;;;;;222551;1268;24040;-53
2023/08/30 01:15:58;;;;;;;1.00;0.80;;;23.80;65.70;;;;;;222516;1266;25440;-56
2023/08/30 01:21:17;;;;;;;1.50;0.80;;;23.80;65.80;;;;;;222451;1264;22688;-53
2023/08/30 01:26:36;;;;;;;0.60;0.50;;;23.80;65.80;;;;;;222467;1268;22632;-55
2023/08/30 01:31:49;;;;;;;1.30;0.80;;;23.80;65.60;;;;;;222860;1268;25050;-55
2023/08/30 01:36:52;;;;;;;1.70;1.00;;;23.80;65.80;;;;;;222634;1262;22649;-55
2023/08/30 01:41:58;;;;;;;1.00;0.70;;;23.80;65.60;;;;;;222570;1266;24421;-55
2023/08/30 01:47:02;;;;;;;0.90;0.90;;;23.80;65.90;;;;;;222767;1263;22633;-58
2023/08/30 01:52:07;;;;;;;0.90;0.40;;;23.80;66.00;;;;;;222496;1263;22756;-53
2023/08/30 01:57:09;;;;;;;0.50;0.50;;;23.80;65.90;;;;;;222495;1260;24217;-57
2023/08/30 02:02:12;;;;;;;1.30;0.90;;;23.80;65.90;;;;;;222376;1266;22596;-55
2023/08/30 02:07:28;;;;;;;0.70;0.50;;;23.80;66.10;;;;;;222255;1263;22640;-54
2023/08/30 02:12:46;;;;;;;0.70;0.70;;;23.80;65.70;;;;;;222805;1265;22635;-56
2023/08/30 02:17:50;;;;;;;0.70;0.70;;;23.70;65.90;;;;;;222707;1268;23924;-54
2023/08/30 02:22:58;;;;;;;1.80;0.60;;;23.70;65.80;;;;;;222604;1266;22521;-58
2023/08/30 02:28:01;;;;;;;0.70;0.60;;;23.80;66.20;;;;;;222459;1262;22525;-55
2023/08/30 02:33:13;;;;;;;1.10;0.70;;;23.70;66.20;;;;;;222231;1263;25452;-54
2023/08/30 02:38:16;;;;;;;0.60;0.60;;;23.70;65.80;;;;;;225753;1262;22523;-55
2023/08/30 02:43:19;;;;;;;0.90;0.50;;;23.80;65.90;;;;;;222199;1263;23419;-55
2023/08/30 02:48:22;;;;;;;0.40;0.40;;;23.80;65.80;;;;;;222287;1268;22515;-58
2023/08/30 02:53:29;;;;;;;0.80;0.80;;;23.80;65.50;;;;;;222845;1258;22517;-55
2023/08/30 02:58:32;;;;;;;0.50;0.50;;;23.70;65.80;;;;;;222876;1257;22564;-55
2023/08/30 03:03:39;;;;;;;0.90;0.60;;;23.70;66.00;;;;;;222390;1268;23669;-53
2023/08/30 03:08:48;;;;;;;1.10;0.60;;;23.70;65.70;;;;;;222223;1263;22522;-56
2023/08/30 03:13:55;;;;;;;0.60;0.60;;;23.60;66.00;;;;;;222402;1268;22542;-56
2023/08/30 03:19:00;;;;;;;0.50;0.50;;;23.60;65.80;;;;;;222290;1266;25331;-55
2023/08/30 03:24:05;;;;;;;1.10;0.50;;;23.60;65.40;;;;;;222242;1263;25570;-55
2023/08/30 03:29:17;;;;;;;0.80;0.60;;;23.60;65.50;;;;;;222520;1268;22599;-55
2023/08/30 03:34:20;;;;;;;0.40;0.40;;;23.60;65.60;;;;;;222588;1257;23892;-56
2023/08/30 03:39:32;;;;;;;3.10;0.40;;;23.60;65.50;;;;;;222549;1263;22507;-56
2023/08/30 03:44:42;;;;;;;2.00;0.50;;;23.60;65.50;;;;;;222596;1266;22526;-55
2023/08/30 03:49:48;;;;;;;0.40;0.40;;;23.60;65.40;;;;;;222684;1262;24158;-55
2023/08/30 03:54:51;;;;;;;1.40;0.60;;;23.60;65.30;;;;;;222556;1260;26522;-54
2023/08/30 03:59:54;;;;;;;0.50;0.50;;;23.60;65.50;;;;;;222507;1256;22517;-57
2023/08/30 04:05:01;;;;;;;1.60;0.40;;;23.50;65.80;;;;;;222663;1266;22537;-55
2023/08/30 04:10:06;;;;;;;0.40;0.40;;;23.50;65.40;;;;;;222698;1263;22529;-56
2023/08/30 04:15:18;;;;;;;0.90;0.60;;;23.60;65.40;;;;;;222767;1266;22507;-55
2023/08/30 04:20:25;;;;;;;0.30;0.30;;;23.50;65.20;;;;;;222164;1260;22860;-55
2023/08/30 04:25:40;;;;;;;2.40;0.60;;;23.60;65.20;;;;;;222731;1266;22507;-53
2023/08/30 04:30:51;;;;;;;0.90;0.50;;;23.60;65.10;;;;;;222529;1254;22517;-57
2023/08/30 04:36:00;;;;;;;0.40;0.40;;;23.50;65.10;;;;;;222113;1253;26819;-54
2023/08/30 04:41:11;;;;;;;0.40;0.40;;;23.50;65.30;;;;;;222579;1268;25642;-56
2023/08/30 04:46:23;;;;;;;1.50;0.50;;;23.50;65.10;;;;;;222599;1267;23912;-56
2023/08/30 04:51:27;;;;;;;0.40;0.40;;;23.50;65.10;;;;;;222511;1263;22526;-55
2023/08/30 04:56:34;;;;;;;1.30;0.50;;;23.50;65.00;;;;;;222535;1263;22543;-52
2023/08/30 05:01:45;;;;;;;0.70;0.50;;;23.50;65.00;;;;;;222470;1261;22937;-53
2023/08/30 05:06:54;;;;;;;0.50;0.50;;;23.40;65.20;;;;;;222466;1268;25251;-53
2023/08/30 05:12:10;;;;;;;0.40;0.40;;;23.40;65.20;;;;;;222300;1262;22763;-57
2023/08/30 05:17:13;;;;;;;0.60;0.60;;;23.50;65.00;;;;;;222344;1268;23508;-54
2023/08/30 05:22:16;;;;;;;0.60;0.50;;;23.50;65.10;;;;;;222031;1268;23878;-53
2023/08/30 05:27:22;;;;;;;0.90;0.60;;;23.40;65.10;;;;;;222365;1259;22640;-55
2023/08/30 05:32:25;;;;;;;0.50;0.50;;;23.40;65.50;;;;;;222717;1267;22994;-53
2023/08/30 05:37:40;;;;;;;0.70;0.30;;;23.30;65.10;;;;;;222347;1263;22631;-54
2023/08/30 05:43:18;;;;;;;0.70;0.50;;;23.50;65.10;;;;;;222456;1263;25433;-55
2023/08/30 05:48:23;;;;;;;1.50;0.60;;;23.50;64.90;;;;;;222565;1263;22538;-54
2023/08/30 05:53:37;;;;;;;0.70;0.70;;;23.60;65.90;;;;;;222335;1266;22504;-54
2023/08/30 05:58:40;;;;;;;2.10;0.60;;;23.60;65.60;;;;;;222372;1268;23031;-54
2023/08/30 06:03:46;;;;;;;2.70;0.90;;;23.60;65.90;;;;;;222239;1263;22498;-57
2023/08/30 06:08:49;;;;;;;2.10;0.80;;;23.50;65.40;;;;;;222144;1266;22523;-52
2023/08/30 06:13:52;;;;;;;1.70;0.60;;;23.60;65.60;;;;;;224271;1263;22650;-54
2023/08/30 06:18:55;;;;;;;2.70;0.80;;;23.60;65.20;;;;;;223509;1263;22514;-54
2023/08/30 06:23:58;;;;;;;3.70;0.70;;;23.70;65.60;;;;;;222177;1268;24288;-55
2023/08/30 06:29:00;;;;;;;5.20;0.70;;;23.60;66.10;;;;;;222936;1266;22528;-53
2023/08/30 06:34:07;;;;;;;0.90;0.80;;;23.70;66.10;;;;;;222257;1266;22524;-54
2023/08/30 06:39:15;;;;;;;0.90;0.60;;;23.60;67.00;;;;;;222194;1256;22695;-55
2023/08/30 06:44:18;;;;;;;0.90;0.60;;;23.60;66.60;;;;;;222135;1265;25337;-54
2023/08/30 06:49:21;;;;;;;1.90;0.80;;;23.60;66.70;;;;;;222081;1268;25675;-53
2023/08/30 06:54:24;;;;;;;1.50;0.60;;;23.60;66.90;;;;;;221989;1262;22527;-52
2023/08/30 06:59:30;;;;;;;2.20;0.80;;;23.60;67.00;;;;;;222183;1266;25318;-54
2023/08/30 07:04:35;;;;;;;0.70;0.70;;;23.80;67.00;;;;;;222449;1268;24745;-51
2023/08/30 07:09:39;;;;;;;2.50;0.90;;;23.80;66.50;;;;;;222321;1260;22501;-51
2023/08/30 07:14:42;;;;;;;2.30;0.40;;;23.70;66.50;;;;;;222135;1266;22511;-51
2023/08/30 07:19:45;;;;;;;1.00;0.50;;;23.70;66.60;;;;;;222681;1260;23618;-54
2023/08/30 07:24:47;;;;;;;1.30;0.60;;;23.60;66.60;;;;;;222390;1269;22700;-50
2023/08/30 07:29:54;;;;;;;1.00;0.70;;;23.70;66.60;;;;;;222846;1269;22528;-52
2023/08/30 07:35:00;;;;;;;3.40;0.50;;;23.80;66.10;;;;;;222461;1268;23893;-52
2023/08/30 07:40:07;;;;;;;3.20;0.50;;;23.80;66.20;;;;;;222575;1268;22844;-52
2023/08/30 07:45:13;;;;;;;0.80;0.50;;;23.80;66.10;;;;;;222370;1268;22533;-53
2023/08/30 07:50:23;;;;;;;0.60;0.50;;;23.80;66.10;;;;;;222499;1266;22517;-52
2023/08/30 07:55:32;;;;;;;0.70;0.50;;;23.80;66.40;;;;;;222345;1266;22540;-54
2023/08/30 08:00:35;;;;;;;1.70;0.60;;;23.80;66.00;;;;;;222721;1268;22514;-54
2023/08/30 08:05:41;;;;;;;0.70;0.50;;;23.70;66.00;;;;;;222328;1266;22515;-54
2023/08/30 08:10:55;;;;;;;1.20;0.60;;;23.80;66.20;;;;;;222706;1269;23219;-52
2023/08/30 08:16:01;;;;;;;0.80;0.80;;;23.70;65.90;;;;;;222244;1266;22538;-53
2023/08/30 08:21:04;;;;;;;2.10;0.50;;;23.80;65.80;;;;;;222310;1247;24982;-52
2023/08/30 08:26:07;;;;;;;1.10;0.50;;;23.90;65.70;;;;;;222481;1268;22517;-49
2023/08/30 08:31:16;;;;;;;0.40;0.40;;;23.80;65.90;;;;;;222421;1264;23010;-52
2023/08/30 08:36:20;;;;;;;0.30;0.30;;;23.80;65.80;;;;;;222562;1260;25255;-52
2023/08/30 08:41:38;;;;;;;0.40;0.40;;;23.80;65.90;;;;;;222338;1259;24256;-52
2023/08/30 08:46:41;;;;;;;2.20;0.50;;;23.80;65.60;;;;;;222595;1266;22640;-56
2023/08/30 08:51:45;;;;;;;0.90;0.40;;;23.80;65.80;;;;;;222295;1266;24191;-53
2023/08/30 08:56:53;;;;;;;0.50;0.40;;;23.90;65.90;;;;;;222272;1260;22515;-51
2023/08/30 09:02:06;;;;;;;0.90;0.60;;;24.00;66.10;;;;;;222448;1268;24260;-57
2023/08/30 09:07:11;;;;;;;2.50;0.50;;;23.90;66.10;;;;;;222415;1254;24285;-51
2023/08/30 09:12:14;;;;;;;3.10;0.60;;;23.90;66.20;;;;;;222636;1266;22517;-55
2023/08/30 09:17:41;;;;;;;4.70;0.70;;;23.90;66.60;;;;;;222269;1268;24183;-53
2023/08/30 09:22:51;;;;;;;1.40;0.50;;;23.90;66.90;;;;;;222511;1265;24160;-55
2023/08/30 09:27:59;;;;;;;3.90;0.60;;;24.00;66.30;;;;;;222633;1263;22636;-55
2023/08/30 09:33:05;;;;;;;3.30;0.70;;;24.00;66.20;;;;;;222671;1263;24190;-55
2023/08/30 09:38:16;;;;;;;3.20;0.70;;;24.00;66.40;;;;;;221852;1265;22605;-55
2023/08/30 09:43:23;;;;;;;5.90;0.70;;;24.00;67.20;;;;;;222939;1266;24276;-55
2023/08/30 09:48:29;;;;;;;2.20;0.70;;;24.10;67.30;;;;;;222778;1261;22626;-53
2023/08/30 09:53:40;;;;;;;3.50;0.80;;;24.10;67.10;;;;;;222708;1266;22521;-56
2023/08/30 09:59:05;;;;;;;5.80;0.80;;;24.10;67.10;;;;;;222840;1261;25221;-54
2023/08/30 10:04:09;;;;;;;3.50;0.70;;;24.30;67.00;;;;;;222499;1250;22626;-54
2023/08/30 10:09:12;;;;;;;7.00;1.20;;;24.00;67.90;;;;;;222340;1268;22964;-54
2023/08/30 10:14:20;;;;;;;11.50;1.20;;;24.10;67.20;;;;;;222433;1257;22528;-54
2023/08/30 10:19:33;;;;;;;7.30;1.30;;;24.10;67.90;;;;;;223962;1259;25324;-52
2023/08/30 10:24:44;;;;;;;4.10;0.50;;;24.30;67.40;;;;;;222497;1266;27819;-52
2023/08/30 10:30:10;;;;;;;4.00;0.70;;;24.30;67.10;;;;;;222146;1266;22740;-51
2023/08/30 10:35:14;;;;;;;1.10;0.40;;;24.20;67.40;;;;;;222288;1266;22529;-50
2023/08/30 10:40:18;;;;;;;2.00;0.60;;;24.10;67.30;;;;;;223303;1269;22520;-55
2023/08/30 10:45:24;;;;;;;3.60;0.50;;;24.10;67.20;;;;;;222287;1256;22636;-54
2023/08/30 10:50:32;;;;;;;6.90;0.80;;;24.10;67.10;;;;;;222277;1266;22517;-50
2023/08/30 10:55:35;;;;;;;3.40;0.50;;;24.10;67.00;;;;;;222787;1254;22520;-53
2023/08/30 11:00:40;;;;;;;2.40;0.50;;;24.10;67.60;;;;;;222409;1269;24314;-48
2023/08/30 11:05:43;;;;;;;1.20;0.60;;;24.30;67.20;;;;;;222549;1264;22634;-51
2023/08/30 11:10:46;;;;;;;1.00;0.50;;;24.40;66.80;;;;;;222048;1263;22522;-51
2023/08/30 11:15:50;;;;;;;3.10;0.70;;;24.30;67.20;;;;;;222307;1262;24997;-52
2023/08/30 11:20:58;;;;;;;4.30;0.50;;;24.30;67.30;;;;;;222475;1268;24249;-50
2023/08/30 11:26:03;;;;;;;2.00;0.70;;;24.40;67.20;;;;;;222591;1263;22525;-51
2023/08/30 11:31:06;;;;;;;0.90;0.70;;;24.40;67.10;;;;;;222639;1268;22518;-50
2023/08/30 11:36:08;;;;;;;2.20;0.50;;;24.40;67.20;;;;;;222087;1266;22595;-53
2023/08/30 11:41:13;;;;;;;1.10;0.50;;;24.40;67.40;;;;;;221649;1244;25320;-53
2023/08/30 11:46:20;;;;;;;0.50;0.50;;;24.40;67.10;;;;;;222161;1256;22783;-52
2023/08/30 11:51:23;;;;;;;2.10;0.50;;;24.50;67.40;;;;;;223247;1254;24388;-52
2023/08/30 11:56:26;;;;;;;4.30;0.60;;;24.50;67.00;;;;;;224054;1251;23099;-50
2023/08/30 12:01:29;;;;;;;2.00;0.50;;;24.50;67.20;;;;;;222291;1266;22533;-54
2023/08/30 12:06:32;;;;;;;3.30;0.70;;;24.50;67.10;;;;;;222471;1266;22851;-53
2023/08/30 12:11:35;;;;;;;1.80;0.70;;;24.50;66.40;;;;;;222776;1252;24398;-53
2023/08/30 12:16:40;;;;;;;1.40;0.70;;;24.50;66.80;;;;;;222292;1266;232633;-52
2023/08/30 12:21:43;;;;;;;3.20;0.70;;;24.50;67.10;;;;;;222635;1263;22559;-53
2023/08/30 12:26:46;;;;;;;0.80;0.60;;;24.50;66.80;;;;;;222116;1257;22576;-53
2023/08/30 12:31:49;;;;;;;5.90;0.60;;;24.50;67.10;;;;;;222302;1268;25403;-52
2023/08/30 12:36:52;;;;;;;6.10;0.80;;;24.40;67.10;;;;;;222528;1266;22595;-51
2023/08/30 12:41:55;;;;;;;4.70;0.80;;;24.40;67.70;;;;;;222451;1268;24196;-54
2023/08/30 12:46:58;;;;;;;6.40;0.90;;;24.30;68.00;;;;;;222578;1268;22601;-53
2023/08/30 12:52:01;;;;;;;1.70;0.60;;;24.30;67.90;;;;;;222667;1269;22593;-54
2023/08/30 12:57:04;;;;;;;1.90;0.50;;;24.40;67.20;;;;;;222668;1263;22615;-53
2023/08/30 13:02:08;;;;;;;2.10;0.80;;;24.50;67.30;;;;;;223075;1263;24196;-52
2023/08/30 13:07:11;;;;;;;2.40;0.70;;;24.50;66.80;;;;;;222829;1266;22869;-54
2023/08/30 13:12:13;;;;;;;2.30;0.80;;;24.50;67.20;;;;;;222656;1263;22724;-58
2023/08/30 13:17:17;;;;;;;1.50;0.80;;;24.50;66.70;;;;;;222818;1266;25392;-54
2023/08/30 13:22:20;;;;;;;2.80;0.60;;;24.40;67.10;;;;;;222580;1268;23981;-52
2023/08/30 13:27:23;;;;;;;2.30;0.80;;;24.30;67.30;;;;;;222425;1256;24229;-53
2023/08/30 13:32:27;;;;;;;3.90;0.60;;;24.30;67.10;;;;;;222772;1269;24075;-50
2023/08/30 13:37:30;;;;;;;3.30;0.70;;;24.30;66.80;;;;;;222658;1253;22518;-52
2023/08/30 13:42:34;;;;;;;1.70;0.80;;;24.50;66.00;;;;;;222523;1263;22596;-53
2023/08/30 13:47:38;;;;;;;3.40;0.70;;;24.40;66.70;;;;;;222598;1266;22786;-55
2023/08/30 13:52:42;;;;;;;5.10;0.70;;;24.50;66.20;;;;;;222480;1267;22530;-52
2023/08/30 13:57:45;;;;;;;5.10;0.70;;;24.40;66.40;;;;;;222542;1263;23170;-49
2023/08/30 14:02:47;;;;;;;5.60;0.70;;;24.50;65.90;;;;;;222667;1262;23914;-47
2023/08/30 14:07:51;;;;;;;2.50;0.60;;;24.30;65.20;;;;;;222616;1254;24190;-50
2023/08/30 14:12:54;;;;;;;4.40;0.60;;;24.20;64.90;;;;;;222927;1261;22572;-47
2023/08/30 14:17:57;;;;;;;2.00;0.70;;;24.10;64.60;;;;;;222790;1266;22514;-48
2023/08/30 14:23:00;;;;;;;2.00;0.60;;;24.10;64.10;;;;;;222679;1261;22513;-48
2023/08/30 14:28:04;;;;;;;4.80;0.60;;;24.10;64.70;;;;;;222443;1261;22521;-48
2023/08/30 14:33:07;;;;;;;1.80;0.40;;;24.10;64.10;;;;;;222479;1267;22534;-49
2023/08/30 14:38:10;;;;;;;3.00;0.90;;;24.10;64.60;;;;;;222472;1268;22765;-47
2023/08/30 14:43:14;;;;;;;2.90;1.30;;;24.10;65.00;;;;;;222570;1261;24196;-51
2023/08/30 14:48:18;;;;;;;2.80;0.90;;;24.30;67.50;;;;;;222322;1264;25300;-49
2023/08/30 14:53:21;;;;;;;1.70;0.80;;;24.30;66.70;;;;;;222481;1261;22517;-47
2023/08/30 14:58:24;;;;;;;3.00;0.70;;;24.40;65.90;;;;;;222174;1263;22521;-50
2023/08/30 15:03:32;;;;;;;4.30;3.10;;;24.40;65.60;;;;;;222383;1266;24243;-49
2023/08/30 15:08:36;;;;;;;3.00;2.80;;;24.40;66.90;;;;;;222474;1263;22527;-48
2023/08/30 15:13:40;;;;;;;4.30;2.30;;;24.40;67.30;;;;;;222785;1267;22664;-49
2023/08/30 15:18:43;;;;;;;4.70;1.70;;;24.40;66.30;;;;;;222494;1253;24308;-47
2023/08/30 15:23:45;;;;;;;6.80;2.20;;;24.40;65.60;;;;;;222436;1260;22512;-49
2023/08/30 15:28:50;;;;;;;5.10;1.70;;;24.50;65.20;;;;;;223438;1263;22974;-48
2023/08/30 15:33:53;;;;;;;3.90;1.50;;;24.50;65.10;;;;;;223091;1266;22518;-51
2023/08/30 15:38:56;;;;;;;4.60;2.10;;;24.60;64.70;;;;;;222211;1266;23843;-49
2023/08/30 15:43:59;;;;;;;2.90;1.80;;;24.60;64.50;;;;;;222324;1261;22768;-48
2023/08/30 15:49:02;;;;;;;1.50;1.30;;;24.60;64.60;;;;;;222599;1257;24221;-47
2023/08/30 15:54:06;;;;;;;2.90;1.40;;;24.60;65.20;;;;;;222862;1267;22563;-47
2023/08/30 15:59:09;;;;;;;3.10;1.90;;;24.60;65.50;;;;;;222655;1261;22515;-48
2023/08/30 16:04:13;;;;;;;1.60;1.20;;;24.60;65.50;;;;;;222544;1260;22577;-48
2023/08/30 16:09:16;;;;;;;2.30;1.40;;;24.50;65.10;;;;;;222837;1257;24239;-51
2023/08/30 16:14:19;;;;;;;2.10;1.60;;;24.50;65.20;;;;;;222608;1266;23888;-52
2023/08/30 16:19:25;;;;;;;4.40;2.50;;;24.50;65.20;;;;;;223078;1261;22572;-48
2023/08/30 16:24:29;;;;;;;6.80;3.20;;;24.60;66.00;;;;;;222535;1261;22529;-49
2023/08/30 16:29:32;;;;;;;6.40;2.70;;;24.60;67.00;;;;;;222512;1264;22514;-49
2023/08/30 16:34:36;;;;;;;11.70;2.20;;;24.40;65.70;;;;;;222715;1257;22527;-48
2023/08/30 16:39:40;;;;;;;8.60;2.10;;;24.20;64.60;;;;;;222391;1260;24205;-53
2023/08/30 16:44:49;;;;;;;9.10;1.60;;;24.20;62.80;;;;;;222247;1254;24195;-50
2023/08/30 16:50:02;;;;;;;7.70;2.00;;;24.30;64.50;;;;;;222512;1257;24215;-52
2023/08/30 16:55:07;;;;;;;1.70;1.50;;;24.50;64.20;;;;;;222515;1254;24401;-54
2023/08/30 17:00:13;;;;;;;2.10;1.40;;;24.40;64.30;;;;;;222158;1254;23897;-52
2023/08/30 17:05:17;;;;;;;1.50;1.40;;;24.40;63.00;;;;;;221750;1264;25989;-51
2023/08/30 17:10:22;;;;;;;2.20;1.40;;;24.30;62.70;;;;;;221626;1266;25224;-61
2023/08/30 17:15:29;;;;;;;9.80;1.30;;;24.50;63.20;;;;;;221324;1261;22996;-57
2023/08/30 17:20:33;;;;;;;6.80;1.70;;;24.40;62.10;;;;;;221404;1267;22542;-57
2023/08/30 17:25:36;;;;;;;3.40;1.80;;;24.20;63.00;;;;;;221667;1266;22647;-57
2023/08/30 17:30:40;;;;;;;9.00;1.50;;;24.10;63.70;;;;;;221501;1266;24371;-53
2023/08/30 17:35:44;;;;;;;3.30;1.30;;;24.10;63.60;;;;;;222999;1265;22551;-53
2023/08/30 17:40:48;;;;;;;5.60;1.80;;;24.30;64.00;;;;;;221150;1267;25432;-51
2023/08/30 17:45:57;;;;;;;18.90;3.20;;;24.50;63.30;;;;;;221285;1272;24356;-53
2023/08/30 17:51:02;;;;;;;10.00;2.60;;;24.50;63.10;;;;;;221879;1267;22517;-53
2023/08/30 17:56:07;;;;;;;8.10;2.30;;;24.50;63.10;;;;;;221532;1266;24483;-52
2023/08/30 18:01:18;;;;;;;10.90;2.20;;;24.40;63.80;;;;;;221798;1266;25507;-51
2023/08/30 18:06:28;;;;;;;10.00;2.90;;;24.50;64.40;;;;;;221625;1269;25275;-51
2023/08/30 18:11:34;;;;;;;24.10;2.20;;;24.50;64.10;;;;;;221675;1267;25357;-52
2023/08/30 18:16:38;;;;;;;4.60;2.00;;;24.40;63.70;;;;;;222163;1260;24420;-51
2023/08/30 18:21:44;;;;;;;10.80;1.90;;;24.20;64.40;;;;;;222737;1254;25567;-52
2023/08/30 18:26:50;;;;;;;6.60;1.20;;;24.20;65.40;;;;;;222673;1257;22540;-51
2023/08/30 18:32:03;;;;;;;5.10;1.80;;;24.00;63.50;;;;;;222628;1257;23914;-51
2023/08/30 18:37:08;;;;;;;2.80;1.40;;;24.00;64.00;;;;;;222681;1254;22661;-54
2023/08/30 18:42:15;;;;;;;12.40;1.70;;;24.00;63.00;;;;;;222499;1254;22640;-52
2023/08/30 18:47:26;;;;;;;3.60;1.40;;;23.90;62.40;;;;;;223032;1266;22658;-53
2023/08/30 18:52:31;;;;;;;3.50;1.40;;;23.90;62.20;;;;;;222644;1263;25236;-55
2023/08/30 18:57:38;;;;;;;4.80;1.60;;;23.80;62.90;;;;;;222922;1263;24211;-49
2023/08/30 19:02:46;;;;;;;3.40;1.60;;;23.80;63.30;;;;;;222972;1258;22524;-54
2023/08/30 19:07:51;;;;;;;1.70;1.50;;;23.60;62.30;;;;;;222455;1264;22595;-52
2023/08/30 19:12:55;;;;;;;3.20;1.50;;;23.50;63.10;;;;;;222419;1266;22513;-52
2023/08/30 19:17:59;;;;;;;6.20;2.00;;;23.50;64.40;;;;;;222990;1264;22524;-52
2023/08/30 19:23:08;;;;;;;5.50;1.60;;;23.70;64.00;;;;;;223097;1256;24648;-54
2023/08/30 19:28:22;;;;;;;2.60;1.30;;;23.90;63.80;;;;;;222117;1262;25759;-54
2023/08/30 19:33:31;;;;;;;1.80;1.30;;;24.00;63.40;;;;;;222737;1266;24294;-52
2023/08/30 19:38:38;;;;;;;6.70;1.70;;;24.00;63.30;;;;;;222741;1266;24221;-51
2023/08/30 19:43:42;;;;;;;19.80;2.20;;;23.80;63.40;;;;;;221310;1267;25350;-53
2023/08/30 19:48:47;;;;;;;6.90;1.80;;;23.70;63.70;;;;;;221208;1269;24323;-53
2023/08/30 19:53:53;;;;;;;7.00;1.60;;;23.70;63.20;;;;;;221150;1269;24280;-54
2023/08/30 19:59:05;;;;;;;7.40;1.70;;;23.70;63.60;;;;;;221280;1269;25236;-53
2023/08/30 20:04:15;;;;;;;3.00;1.80;;;23.80;63.50;;;;;;221130;1260;22524;-52
2023/08/30 20:09:23;;;;;;;6.60;2.30;;;23.80;64.50;;;;;;221112;1275;22659;-45
2023/08/30 20:14:32;;;;;;;5.00;1.60;;;23.80;64.10;;;;;;221001;1272;24272;-46
2023/08/30 20:19:37;;;;;;;2.10;1.70;;;23.80;65.00;;;;;;221539;1268;23307;-45
2023/08/30 20:24:42;;;;;;;4.90;2.30;;;23.70;65.60;;;;;;222823;1254;24217;-46
2023/08/30 20:29:49;;;;;;;9.70;1.90;;;23.60;66.10;;;;;;222445;1260;24266;-45
2023/08/30 20:34:54;;;;;;;7.80;2.10;;;23.60;66.30;;;;;;222501;1260;24313;-44
2023/08/30 20:39:58;;;;;;;7.10;2.00;;;23.80;67.80;;;;;;222664;1252;22515;-46
2023/08/30 20:45:04;;;;;;;5.70;2.10;;;23.70;68.20;;;;;;222403;1260;23892;-44
2023/08/30 20:50:11;;;;;;;4.60;1.90;;;23.70;68.00;;;;;;222429;1268;22507;-46
2023/08/30 20:55:15;;;;;;;4.80;2.30;;;23.60;68.20;;;;;;222967;1262;24055;-53
2023/08/30 21:00:29;;;;;;;3.50;2.20;;;23.70;67.80;;;;;;222479;1261;22936;-53
2023/08/30 21:05:32;;;;;;;4.90;1.80;;;23.70;67.40;;;;;;222462;1264;24193;-51
2023/08/30 21:10:37;;;;;;;3.00;1.90;;;23.70;67.60;;;;;;222554;1266;23889;-54
2023/08/30 21:15:41;;;;;;;2.40;2.00;;;23.70;68.30;;;;;;222745;1261;22618;-51
2023/08/30 21:20:44;;;;;;;2.50;2.00;;;23.70;67.80;;;;;;222952;1264;25412;-52
2023/08/30 21:25:47;;;;;;;3.90;1.80;;;23.70;68.00;;;;;;222150;1266;22546;-55
2023/08/30 21:30:50;;;;;;;2.80;2.40;;;23.60;68.50;;;;;;222425;1261;22819;-55
2023/08/30 21:35:59;;;;;;;2.60;1.80;;;23.70;67.90;;;;;;222614;1263;22630;-53
2023/08/30 21:41:02;;;;;;;2.00;1.80;;;23.70;68.20;;;;;;222408;1256;23920;-54
2023/08/30 21:46:07;;;;;;;2.50;1.70;;;23.60;67.80;;;;;;223010;1260;25391;-52
2023/08/30 21:51:10;;;;;;;3.90;1.90;;;23.60;67.90;;;;;;222566;1262;22534;-53
2023/08/30 21:56:13;;;;;;;4.20;1.70;;;23.60;67.90;;;;;;222323;1260;22626;-53
2023/08/30 22:01:16;;;;;;;3.00;1.50;;;23.60;67.80;;;;;;222561;1250;24249;-54
2023/08/30 22:06:20;;;;;;;3.60;1.90;;;23.60;68.00;;;;;;222495;1263;22502;-52
2023/08/30 22:11:24;;;;;;;2.00;1.60;;;23.60;68.30;;;;;;222749;1266;25331;-54
2023/08/30 22:16:27;;;;;;;2.00;1.70;;;23.50;68.00;;;;;;222565;1263;22528;-52
2023/08/30 22:21:32;;;;;;;3.80;2.00;;;23.60;68.50;;;;;;222680;1261;25393;-53
2023/08/30 22:26:36;;;;;;;2.00;1.40;;;23.60;68.20;;;;;;222764;1263;22530;-53
2023/08/30 22:31:39;;;;;;;1.60;1.50;;;23.60;68.30;;;;;;222511;1262;22534;-54
2023/08/30 22:36:41;;;;;;;2.20;1.70;;;23.60;68.70;;;;;;222935;1253;22524;-54
2023/08/30 22:41:52;;;;;;;2.90;1.70;;;23.60;68.40;;;;;;222754;1261;22687;-52
2023/08/30 22:46:54;;;;;;;3.00;2.00;;;23.70;68.30;;;;;;222490;1260;23756;-50
2023/08/30 22:51:58;;;;;;;2.40;2.10;;;23.80;68.00;;;;;;222400;1259;23949;-53
2023/08/30 22:57:00;;;;;;;1.90;1.80;;;23.90;68.30;;;;;;223169;1263;24241;-52
2023/08/30 23:02:03;;;;;;;3.30;2.00;;;24.10;67.70;;;;;;222630;1261;22632;-55
2023/08/30 23:07:14;;;;;;;2.40;2.20;;;24.10;68.00;;;;;;222484;1261;22511;-54
2023/08/30 23:12:17;;;;;;;2.70;2.00;;;24.10;68.30;;;;;;222728;1267;24202;-53
2023/08/30 23:17:23;;;;;;;2.10;2.00;;;24.10;68.70;;;;;;222363;1263;22543;-52
2023/08/30 23:22:26;;;;;;;4.20;2.30;;;24.20;69.10;;;;;;222621;1253;22695;-52
2023/08/30 23:27:29;;;;;;;2.30;1.80;;;24.30;69.30;;;;;;222649;1261;22536;-55
2023/08/30 23:32:35;;;;;;;2.10;1.90;;;24.10;69.80;;;;;;222163;1258;22518;-58
2023/08/30 23:37:37;;;;;;;2.80;2.10;;;24.10;69.70;;;;;;222518;1268;22524;-60
2023/08/30 23:42:42;;;;;;;2.40;2.10;;;24.10;70.80;;;;;;222521;1263;23003;-57
2023/08/30 23:47:44;;;;;;;1.90;1.80;;;24.20;70.10;;;;;;222678;1263;22546;-56
2023/08/30 23:52:47;;;;;;;2.50;2.30;;;24.20;69.90;;;;;;222546;1253;24240;-56
2023/08/30 23:57:50;;;;;;;2.50;2.20;;;24.20;70.00;;;;;;223020;1264;22602;-57
